sensor_id;sensor_type;location;lat;lon;timestamp;P1;durP1;ratioP1;P2;durP2;ratioP2
52898;SDS011;38763;53.096;6.062;2022-08-25T00:01:10;33.65;;;24.65;;
52898;SDS011;38763;53.096;6.062;2022-08-25T00:03:41;34.33;;;24.30;;
52898;SDS011;38763;53.096;6.062;2022-08-25T00:06:07;34.60;;;26.05;;
52898;SDS011;38763;53.096;6.062;2022-08-25T00:08:34;33.15;;;24.52;;
52898;SDS011;38763;53.096;6.062;2022-08-25T00:11:06;35.38;;;26.25;;
52898;SDS011;38763;53.096;6.062;2022-08-25T00:13:35;36.85;;;25.80;;
52898;SDS011;38763;53.096;6.062;2022-08-25T00:16:02;36.10;;;26.48;;
52898;SDS011;38763;53.096;6.062;2022-08-25T00:18:28;37.78;;;25.95;;
52898;SDS011;38763;53.096;6.062;2022-08-25T00:20:54;39.20;;;27.27;;
52898;SDS011;38763;53.096;6.062;2022-08-25T00:23:20;35.95;;;26.40;;
52898;SDS011;38763;53.096;6.062;2022-08-25T00:25:45;35.50;;;25.52;;
52898;SDS011;38763;53.096;6.062;2022-08-25T00:28:11;36.40;;;24.63;;
52898;SDS011;38763;53.096;6.062;2022-08-25T00:30:38;37.28;;;25.00;;
52898;SDS011;38763;53.096;6.062;2022-08-25T00:33:03;37.70;;;24.45;;
52898;SDS011;38763;53.096;6.062;2022-08-25T00:35:29;34.17;;;23.55;;
52898;SDS011;38763;53.096;6.062;2022-08-25T00:37:55;39.13;;;24.17;;
52898;SDS011;38763;53.096;6.062;2022-08-25T00:40:22;39.92;;;23.88;;
52898;SDS011;38763;53.096;6.062;2022-08-25T00:42:49;35.13;;;22.58;;
52898;SDS011;38763;53.096;6.062;2022-08-25T00:45:14;29.50;;;21.00;;
52898;SDS011;38763;53.096;6.062;2022-08-25T00:47:40;25.27;;;19.30;;
52898;SDS011;38763;53.096;6.062;2022-08-25T00:50:06;28.30;;;18.65;;
52898;SDS011;38763;53.096;6.062;2022-08-25T00:52:37;25.05;;;17.70;;
52898;SDS011;38763;53.096;6.062;2022-08-25T00:55:16;23.90;;;16.33;;
52898;SDS011;38763;53.096;6.062;2022-08-25T00:57:47;23.90;;;17.10;;
52898;SDS011;38763;53.096;6.062;2022-08-25T01:00:28;23.13;;;16.80;;
52898;SDS011;38763;53.096;6.062;2022-08-25T01:02:56;22.08;;;16.25;;
52898;SDS011;38763;53.096;6.062;2022-08-25T01:05:22;23.02;;;16.98;;
52898;SDS011;38763;53.096;6.062;2022-08-25T01:07:50;26.65;;;17.00;;
52898;SDS011;38763;53.096;6.062;2022-08-25T01:10:16;23.98;;;16.60;;
52898;SDS011;38763;53.096;6.062;2022-08-25T01:12:43;23.08;;;16.02;;
52898;SDS011;38763;53.096;6.062;2022-08-25T01:15:09;24.13;;;16.13;;
52898;SDS011;38763;53.096;6.062;2022-08-25T01:17:55;21.77;;;14.40;;
52898;SDS011;38763;53.096;6.062;2022-08-25T01:20:23;24.83;;;15.30;;
52898;SDS011;38763;53.096;6.062;2022-08-25T01:22:52;20.67;;;14.57;;
52898;SDS011;38763;53.096;6.062;2022-08-25T01:28:21;20.88;;;14.70;;
52898;SDS011;38763;53.096;6.062;2022-08-25T01:30:47;17.75;;;12.77;;
52898;SDS011;38763;53.096;6.062;2022-08-25T01:33:14;21.90;;;13.15;;
52898;SDS011;38763;53.096;6.062;2022-08-25T01:35:41;15.88;;;12.20;;
52898;SDS011;38763;53.096;6.062;2022-08-25T01:38:07;16.38;;;11.68;;
52898;SDS011;38763;53.096;6.062;2022-08-25T01:40:34;15.07;;;10.93;;
52898;SDS011;38763;53.096;6.062;2022-08-25T01:45:39;17.05;;;11.38;;
52898;SDS011;38763;53.096;6.062;2022-08-25T01:48:07;18.48;;;10.32;;
52898;SDS011;38763;53.096;6.062;2022-08-25T01:50:35;14.50;;;9.75;;
52898;SDS011;38763;53.096;6.062;2022-08-25T01:55:51;15.48;;;9.55;;
52898;SDS011;38763;53.096;6.062;2022-08-25T01:58:19;12.75;;;9.10;;
52898;SDS011;38763;53.096;6.062;2022-08-25T02:00:47;13.23;;;8.43;;
52898;SDS011;38763;53.096;6.062;2022-08-25T02:03:14;14.32;;;8.45;;
52898;SDS011;38763;53.096;6.062;2022-08-25T02:05:41;13.48;;;7.85;;
52898;SDS011;38763;53.096;6.062;2022-08-25T02:08:07;10.65;;;8.00;;
52898;SDS011;38763;53.096;6.062;2022-08-25T02:10:33;11.07;;;7.75;;
52898;SDS011;38763;53.096;6.062;2022-08-25T02:12:59;12.40;;;7.38;;
52898;SDS011;38763;53.096;6.062;2022-08-25T02:15:25;14.07;;;7.20;;
52898;SDS011;38763;53.096;6.062;2022-08-25T02:17:51;12.57;;;6.95;;
52898;SDS011;38763;53.096;6.062;2022-08-25T02:20:16;11.00;;;7.43;;
52898;SDS011;38763;53.096;6.062;2022-08-25T02:22:43;9.65;;;6.32;;
52898;SDS011;38763;53.096;6.062;2022-08-25T02:25:08;11.20;;;5.90;;
52898;SDS011;38763;53.096;6.062;2022-08-25T02:27:34;11.93;;;6.05;;
52898;SDS011;38763;53.096;6.062;2022-08-25T02:30:00;13.10;;;5.85;;
52898;SDS011;38763;53.096;6.062;2022-08-25T02:32:26;10.70;;;5.63;;
52898;SDS011;38763;53.096;6.062;2022-08-25T02:34:52;8.50;;;5.03;;
52898;SDS011;38763;53.096;6.062;2022-08-25T02:37:17;9.13;;;5.10;;
52898;SDS011;38763;53.096;6.062;2022-08-25T02:39:44;10.60;;;5.22;;
52898;SDS011;38763;53.096;6.062;2022-08-25T02:42:10;7.47;;;4.57;;
52898;SDS011;38763;53.096;6.062;2022-08-25T02:44:36;7.85;;;4.50;;
52898;SDS011;38763;53.096;6.062;2022-08-25T02:47:01;8.23;;;4.90;;
52898;SDS011;38763;53.096;6.062;2022-08-25T02:49:27;11.63;;;4.32;;
52898;SDS011;38763;53.096;6.062;2022-08-25T02:51:54;7.28;;;4.10;;
52898;SDS011;38763;53.096;6.062;2022-08-25T02:54:20;6.45;;;4.22;;
52898;SDS011;38763;53.096;6.062;2022-08-25T02:56:47;7.63;;;4.10;;
52898;SDS011;38763;53.096;6.062;2022-08-25T02:59:13;6.75;;;3.83;;
52898;SDS011;38763;53.096;6.062;2022-08-25T03:01:39;8.40;;;3.72;;
52898;SDS011;38763;53.096;6.062;2022-08-25T03:04:04;8.85;;;4.20;;
52898;SDS011;38763;53.096;6.062;2022-08-25T03:06:31;9.77;;;4.07;;
52898;SDS011;38763;53.096;6.062;2022-08-25T03:08:57;6.32;;;3.75;;
52898;SDS011;38763;53.096;6.062;2022-08-25T03:11:22;7.35;;;3.80;;
52898;SDS011;38763;53.096;6.062;2022-08-25T03:13:49;6.97;;;3.38;;
52898;SDS011;38763;53.096;6.062;2022-08-25T03:16:15;8.93;;;3.70;;
52898;SDS011;38763;53.096;6.062;2022-08-25T03:18:41;7.97;;;3.65;;
52898;SDS011;38763;53.096;6.062;2022-08-25T03:21:07;6.47;;;3.53;;
52898;SDS011;38763;53.096;6.062;2022-08-25T03:23:33;6.60;;;3.50;;
52898;SDS011;38763;53.096;6.062;2022-08-25T03:25:59;7.15;;;3.97;;
52898;SDS011;38763;53.096;6.062;2022-08-25T03:28:43;6.15;;;3.40;;
52898;SDS011;38763;53.096;6.062;2022-08-25T03:31:09;8.10;;;3.67;;
52898;SDS011;38763;53.096;6.062;2022-08-25T03:33:35;7.68;;;3.50;;
52898;SDS011;38763;53.096;6.062;2022-08-25T03:36:02;7.57;;;3.58;;
52898;SDS011;38763;53.096;6.062;2022-08-25T03:38:29;8.85;;;3.45;;
52898;SDS011;38763;53.096;6.062;2022-08-25T03:40:55;7.38;;;3.30;;
52898;SDS011;38763;53.096;6.062;2022-08-25T03:43:21;7.75;;;3.45;;
52898;SDS011;38763;53.096;6.062;2022-08-25T03:45:47;9.10;;;3.50;;
52898;SDS011;38763;53.096;6.062;2022-08-25T03:48:13;8.40;;;3.60;;
52898;SDS011;38763;53.096;6.062;2022-08-25T03:50:43;10.93;;;3.38;;
52898;SDS011;38763;53.096;6.062;2022-08-25T03:53:11;8.32;;;3.78;;
52898;SDS011;38763;53.096;6.062;2022-08-25T03:55:37;7.05;;;3.30;;
52898;SDS011;38763;53.096;6.062;2022-08-25T03:58:04;5.63;;;3.28;;
52898;SDS011;38763;53.096;6.062;2022-08-25T04:00:29;9.70;;;3.80;;
52898;SDS011;38763;53.096;6.062;2022-08-25T04:02:55;8.23;;;3.42;;
52898;SDS011;38763;53.096;6.062;2022-08-25T04:05:20;6.85;;;3.53;;
52898;SDS011;38763;53.096;6.062;2022-08-25T04:07:46;6.60;;;3.53;;
52898;SDS011;38763;53.096;6.062;2022-08-25T04:10:12;6.70;;;3.55;;
52898;SDS011;38763;53.096;6.062;2022-08-25T04:12:38;6.22;;;2.83;;
52898;SDS011;38763;53.096;6.062;2022-08-25T04:15:04;5.53;;;3.17;;
52898;SDS011;38763;53.096;6.062;2022-08-25T04:17:31;7.50;;;3.03;;
52898;SDS011;38763;53.096;6.062;2022-08-25T04:19:57;9.45;;;3.45;;
52898;SDS011;38763;53.096;6.062;2022-08-25T04:22:23;6.55;;;3.28;;
52898;SDS011;38763;53.096;6.062;2022-08-25T04:24:49;7.75;;;3.15;;
52898;SDS011;38763;53.096;6.062;2022-08-25T04:27:14;6.47;;;3.50;;
52898;SDS011;38763;53.096;6.062;2022-08-25T04:29:40;11.18;;;3.53;;
52898;SDS011;38763;53.096;6.062;2022-08-25T04:32:06;7.72;;;3.55;;
52898;SDS011;38763;53.096;6.062;2022-08-25T04:34:31;7.10;;;3.22;;
52898;SDS011;38763;53.096;6.062;2022-08-25T04:36:58;6.60;;;3.60;;
52898;SDS011;38763;53.096;6.062;2022-08-25T04:39:25;6.90;;;3.60;;
52898;SDS011;38763;53.096;6.062;2022-08-25T04:41:51;7.47;;;3.38;;
52898;SDS011;38763;53.096;6.062;2022-08-25T04:44:17;7.20;;;3.28;;
52898;SDS011;38763;53.096;6.062;2022-08-25T04:46:42;7.32;;;3.40;;
52898;SDS011;38763;53.096;6.062;2022-08-25T04:49:08;9.82;;;3.17;;
52898;SDS011;38763;53.096;6.062;2022-08-25T04:51:36;7.47;;;2.88;;
52898;SDS011;38763;53.096;6.062;2022-08-25T04:54:05;8.68;;;4.07;;
52898;SDS011;38763;53.096;6.062;2022-08-25T04:56:35;8.07;;;3.35;;
52898;SDS011;38763;53.096;6.062;2022-08-25T04:59:04;8.50;;;3.25;;
52898;SDS011;38763;53.096;6.062;2022-08-25T05:01:34;6.20;;;3.17;;
52898;SDS011;38763;53.096;6.062;2022-08-25T05:04:01;8.63;;;3.22;;
52898;SDS011;38763;53.096;6.062;2022-08-25T05:06:29;9.27;;;3.38;;
52898;SDS011;38763;53.096;6.062;2022-08-25T05:08:55;9.07;;;3.65;;
52898;SDS011;38763;53.096;6.062;2022-08-25T05:11:22;6.05;;;3.42;;
52898;SDS011;38763;53.096;6.062;2022-08-25T05:13:49;6.80;;;3.40;;
52898;SDS011;38763;53.096;6.062;2022-08-25T05:16:16;8.63;;;3.60;;
52898;SDS011;38763;53.096;6.062;2022-08-25T05:18:43;9.13;;;3.15;;
52898;SDS011;38763;53.096;6.062;2022-08-25T05:21:13;9.27;;;3.50;;
52898;SDS011;38763;53.096;6.062;2022-08-25T05:23:41;6.72;;;3.28;;
52898;SDS011;38763;53.096;6.062;2022-08-25T05:26:09;6.57;;;3.50;;
52898;SDS011;38763;53.096;6.062;2022-08-25T05:28:36;6.65;;;3.60;;
52898;SDS011;38763;53.096;6.062;2022-08-25T05:31:05;8.75;;;3.80;;
52898;SDS011;38763;53.096;6.062;2022-08-25T05:33:34;6.78;;;3.20;;
52898;SDS011;38763;53.096;6.062;2022-08-25T05:36:01;8.88;;;3.17;;
52898;SDS011;38763;53.096;6.062;2022-08-25T05:38:27;7.88;;;3.60;;
52898;SDS011;38763;53.096;6.062;2022-08-25T05:40:59;8.85;;;3.17;;
52898;SDS011;38763;53.096;6.062;2022-08-25T05:43:28;8.57;;;3.45;;
52898;SDS011;38763;53.096;6.062;2022-08-25T05:45:55;5.22;;;3.30;;
52898;SDS011;38763;53.096;6.062;2022-08-25T05:48:22;9.70;;;3.22;;
52898;SDS011;38763;53.096;6.062;2022-08-25T05:50:55;7.63;;;3.28;;
52898;SDS011;38763;53.096;6.062;2022-08-25T05:53:26;8.32;;;3.90;;
52898;SDS011;38763;53.096;6.062;2022-08-25T05:55:54;6.80;;;3.33;;
52898;SDS011;38763;53.096;6.062;2022-08-25T05:58:21;6.15;;;3.22;;
52898;SDS011;38763;53.096;6.062;2022-08-25T06:00:48;6.70;;;3.22;;
52898;SDS011;38763;53.096;6.062;2022-08-25T06:03:14;17.30;;;3.63;;
52898;SDS011;38763;53.096;6.062;2022-08-25T06:05:40;8.23;;;3.15;;
52898;SDS011;38763;53.096;6.062;2022-08-25T06:08:06;5.93;;;3.20;;
52898;SDS011;38763;53.096;6.062;2022-08-25T06:10:32;7.53;;;3.00;;
52898;SDS011;38763;53.096;6.062;2022-08-25T06:12:58;6.75;;;3.58;;
52898;SDS011;38763;53.096;6.062;2022-08-25T06:15:24;5.55;;;3.28;;
52898;SDS011;38763;53.096;6.062;2022-08-25T06:17:50;6.93;;;3.20;;
52898;SDS011;38763;53.096;6.062;2022-08-25T06:20:19;7.93;;;3.08;;
52898;SDS011;38763;53.096;6.062;2022-08-25T06:22:46;5.43;;;3.10;;
52898;SDS011;38763;53.096;6.062;2022-08-25T06:25:14;10.45;;;3.20;;
52898;SDS011;38763;53.096;6.062;2022-08-25T06:27:41;8.98;;;3.60;;
52898;SDS011;38763;53.096;6.062;2022-08-25T06:30:08;11.07;;;3.20;;
52898;SDS011;38763;53.096;6.062;2022-08-25T06:32:36;6.18;;;3.47;;
52898;SDS011;38763;53.096;6.062;2022-08-25T06:35:04;8.35;;;3.30;;
52898;SDS011;38763;53.096;6.062;2022-08-25T06:37:31;8.82;;;3.25;;
52898;SDS011;38763;53.096;6.062;2022-08-25T06:39:57;7.45;;;3.22;;
52898;SDS011;38763;53.096;6.062;2022-08-25T06:42:22;6.80;;;3.38;;
52898;SDS011;38763;53.096;6.062;2022-08-25T06:44:48;7.72;;;2.92;;
52898;SDS011;38763;53.096;6.062;2022-08-25T06:47:14;13.57;;;3.83;;
52898;SDS011;38763;53.096;6.062;2022-08-25T06:49:42;5.60;;;3.17;;
52898;SDS011;38763;53.096;6.062;2022-08-25T06:52:08;7.93;;;3.30;;
52898;SDS011;38763;53.096;6.062;2022-08-25T06:54:34;7.65;;;3.13;;
52898;SDS011;38763;53.096;6.062;2022-08-25T06:57:00;7.78;;;3.13;;
52898;SDS011;38763;53.096;6.062;2022-08-25T06:59:26;6.97;;;3.20;;
52898;SDS011;38763;53.096;6.062;2022-08-25T07:01:51;7.35;;;3.10;;
52898;SDS011;38763;53.096;6.062;2022-08-25T07:04:17;7.25;;;3.13;;
52898;SDS011;38763;53.096;6.062;2022-08-25T07:06:43;6.78;;;3.22;;
52898;SDS011;38763;53.096;6.062;2022-08-25T07:09:10;5.88;;;3.20;;
52898;SDS011;38763;53.096;6.062;2022-08-25T07:11:35;6.40;;;2.95;;
52898;SDS011;38763;53.096;6.062;2022-08-25T07:14:06;6.28;;;3.30;;
52898;SDS011;38763;53.096;6.062;2022-08-25T07:16:33;8.88;;;3.05;;
52898;SDS011;38763;53.096;6.062;2022-08-25T07:18:59;6.57;;;2.83;;
52898;SDS011;38763;53.096;6.062;2022-08-25T07:21:26;7.32;;;2.90;;
52898;SDS011;38763;53.096;6.062;2022-08-25T07:23:55;6.72;;;3.20;;
52898;SDS011;38763;53.096;6.062;2022-08-25T07:26:24;7.90;;;3.10;;
52898;SDS011;38763;53.096;6.062;2022-08-25T07:28:52;7.35;;;3.28;;
52898;SDS011;38763;53.096;6.062;2022-08-25T07:31:19;5.05;;;3.00;;
52898;SDS011;38763;53.096;6.062;2022-08-25T07:33:45;6.68;;;3.53;;
52898;SDS011;38763;53.096;6.062;2022-08-25T07:36:29;5.47;;;2.70;;
52898;SDS011;38763;53.096;6.062;2022-08-25T07:38:56;7.07;;;3.00;;
52898;SDS011;38763;53.096;6.062;2022-08-25T07:41:23;6.88;;;3.15;;
52898;SDS011;38763;53.096;6.062;2022-08-25T07:43:49;10.63;;;3.30;;
52898;SDS011;38763;53.096;6.062;2022-08-25T07:46:14;5.25;;;2.88;;
52898;SDS011;38763;53.096;6.062;2022-08-25T07:48:40;7.38;;;2.97;;
52898;SDS011;38763;53.096;6.062;2022-08-25T07:51:10;7.47;;;2.90;;
52898;SDS011;38763;53.096;6.062;2022-08-25T07:53:38;5.00;;;3.00;;
52898;SDS011;38763;53.096;6.062;2022-08-25T07:56:08;8.25;;;3.33;;
52898;SDS011;38763;53.096;6.062;2022-08-25T07:58:39;5.13;;;2.92;;
52898;SDS011;38763;53.096;6.062;2022-08-25T08:01:06;6.82;;;3.40;;
52898;SDS011;38763;53.096;6.062;2022-08-25T08:03:36;6.53;;;3.10;;
52898;SDS011;38763;53.096;6.062;2022-08-25T08:06:06;5.10;;;2.85;;
52898;SDS011;38763;53.096;6.062;2022-08-25T08:08:35;7.43;;;3.13;;
52898;SDS011;38763;53.096;6.062;2022-08-25T08:11:12;8.85;;;2.80;;
52898;SDS011;38763;53.096;6.062;2022-08-25T08:13:41;7.55;;;2.75;;
52898;SDS011;38763;53.096;6.062;2022-08-25T08:16:11;5.22;;;2.55;;
52898;SDS011;38763;53.096;6.062;2022-08-25T08:18:38;8.10;;;2.78;;
52898;SDS011;38763;53.096;6.062;2022-08-25T08:21:03;7.82;;;2.85;;
52898;SDS011;38763;53.096;6.062;2022-08-25T08:23:34;5.65;;;2.90;;
52898;SDS011;38763;53.096;6.062;2022-08-25T08:26:00;7.60;;;2.60;;
52898;SDS011;38763;53.096;6.062;2022-08-25T08:28:26;9.55;;;2.83;;
52898;SDS011;38763;53.096;6.062;2022-08-25T08:30:52;7.65;;;2.50;;
52898;SDS011;38763;53.096;6.062;2022-08-25T08:33:17;5.07;;;2.55;;
52898;SDS011;38763;53.096;6.062;2022-08-25T08:35:43;9.05;;;2.65;;
52898;SDS011;38763;53.096;6.062;2022-08-25T08:38:08;5.95;;;2.85;;
52898;SDS011;38763;53.096;6.062;2022-08-25T08:40:38;7.50;;;2.58;;
52898;SDS011;38763;53.096;6.062;2022-08-25T08:43:31;5.00;;;2.40;;
52898;SDS011;38763;53.096;6.062;2022-08-25T08:45:58;5.80;;;2.47;;
52898;SDS011;38763;53.096;6.062;2022-08-25T08:48:37;6.60;;;2.60;;
52898;SDS011;38763;53.096;6.062;2022-08-25T08:51:14;6.10;;;2.25;;
52898;SDS011;38763;53.096;6.062;2022-08-25T08:53:46;4.65;;;2.40;;
52898;SDS011;38763;53.096;6.062;2022-08-25T08:56:29;6.78;;;2.80;;
52898;SDS011;38763;53.096;6.062;2022-08-25T08:59:02;6.43;;;2.33;;
52898;SDS011;38763;53.096;6.062;2022-08-25T09:01:52;5.55;;;2.72;;
52898;SDS011;38763;53.096;6.062;2022-08-25T09:04:31;6.30;;;2.33;;
52898;SDS011;38763;53.096;6.062;2022-08-25T09:07:02;6.38;;;2.90;;
52898;SDS011;38763;53.096;6.062;2022-08-25T09:09:33;5.38;;;2.28;;
52898;SDS011;38763;53.096;6.062;2022-08-25T09:12:04;7.13;;;2.30;;
52898;SDS011;38763;53.096;6.062;2022-08-25T09:14:38;4.15;;;2.00;;
52898;SDS011;38763;53.096;6.062;2022-08-25T09:22:35;5.75;;;2.03;;
52898;SDS011;38763;53.096;6.062;2022-08-25T09:25:22;6.53;;;2.10;;
52898;SDS011;38763;53.096;6.062;2022-08-25T09:33:46;5.28;;;2.42;;
52898;SDS011;38763;53.096;6.062;2022-08-25T09:36:12;5.90;;;1.98;;
52898;SDS011;38763;53.096;6.062;2022-08-25T09:38:38;8.05;;;2.20;;
52898;SDS011;38763;53.096;6.062;2022-08-25T09:41:04;3.38;;;1.90;;
52898;SDS011;38763;53.096;6.062;2022-08-25T09:48:28;4.68;;;1.85;;
52898;SDS011;38763;53.096;6.062;2022-08-25T09:53:52;5.70;;;1.80;;
52898;SDS011;38763;53.096;6.062;2022-08-25T09:56:21;7.25;;;1.80;;
52898;SDS011;38763;53.096;6.062;2022-08-25T09:58:49;5.90;;;2.08;;
52898;SDS011;38763;53.096;6.062;2022-08-25T10:01:19;4.70;;;1.85;;
52898;SDS011;38763;53.096;6.062;2022-08-25T10:03:53;3.45;;;1.83;;
52898;SDS011;38763;53.096;6.062;2022-08-25T10:06:24;6.30;;;1.90;;
52898;SDS011;38763;53.096;6.062;2022-08-25T10:08:54;3.95;;;1.90;;
52898;SDS011;38763;53.096;6.062;2022-08-25T10:11:29;5.20;;;1.95;;
52898;SDS011;38763;53.096;6.062;2022-08-25T10:14:00;6.30;;;2.05;;
52898;SDS011;38763;53.096;6.062;2022-08-25T10:16:30;3.80;;;2.00;;
52898;SDS011;38763;53.096;6.062;2022-08-25T10:21:34;6.70;;;1.90;;
52898;SDS011;38763;53.096;6.062;2022-08-25T10:24:02;4.78;;;1.90;;
52898;SDS011;38763;53.096;6.062;2022-08-25T10:32:11;5.15;;;1.92;;
52898;SDS011;38763;53.096;6.062;2022-08-25T10:35:22;5.43;;;2.20;;
52898;SDS011;38763;53.096;6.062;2022-08-25T10:37:59;5.00;;;1.85;;
52898;SDS011;38763;53.096;6.062;2022-08-25T10:40:36;5.85;;;2.10;;
52898;SDS011;38763;53.096;6.062;2022-08-25T10:43:32;7.68;;;2.40;;
52898;SDS011;38763;53.096;6.062;2022-08-25T10:48:55;5.45;;;2.13;;
52898;SDS011;38763;53.096;6.062;2022-08-25T10:55:00;3.70;;;2.05;;
52898;SDS011;38763;53.096;6.062;2022-08-25T11:00:17;9.68;;;2.22;;
52898;SDS011;38763;53.096;6.062;2022-08-25T11:14:00;5.18;;;2.20;;
52898;SDS011;38763;53.096;6.062;2022-08-25T11:16:37;5.70;;;2.08;;
52898;SDS011;38763;53.096;6.062;2022-08-25T11:21:52;5.07;;;1.92;;
52898;SDS011;38763;53.096;6.062;2022-08-25T11:27:18;3.35;;;1.92;;
52898;SDS011;38763;53.096;6.062;2022-08-25T11:30:32;5.40;;;2.30;;
52898;SDS011;38763;53.096;6.062;2022-08-25T11:32:35;4.22;;;1.90;;
52898;SDS011;38763;53.096;6.062;2022-08-25T11:35:03;5.70;;;1.80;;
52898;SDS011;38763;53.096;6.062;2022-08-25T11:37:31;4.85;;;1.90;;
52898;SDS011;38763;53.096;6.062;2022-08-25T11:42:48;8.25;;;2.00;;
52898;SDS011;38763;53.096;6.062;2022-08-25T11:50:59;7.90;;;2.17;;
52898;SDS011;38763;53.096;6.062;2022-08-25T11:53:35;4.45;;;1.77;;
52898;SDS011;38763;53.096;6.062;2022-08-25T11:58:40;3.95;;;2.03;;
52898;SDS011;38763;53.096;6.062;2022-08-25T12:01:59;4.72;;;2.00;;
52898;SDS011;38763;53.096;6.062;2022-08-25T12:04:37;3.10;;;1.80;;
52898;SDS011;38763;53.096;6.062;2022-08-25T12:23:31;4.03;;;1.75;;
52898;SDS011;38763;53.096;6.062;2022-08-25T12:31:30;4.10;;;1.73;;
52898;SDS011;38763;53.096;6.062;2022-08-25T12:37:04;5.25;;;1.80;;
52898;SDS011;38763;53.096;6.062;2022-08-25T12:39:48;5.70;;;1.63;;
52898;SDS011;38763;53.096;6.062;2022-08-25T12:42:28;6.00;;;1.70;;
52898;SDS011;38763;53.096;6.062;2022-08-25T12:45:13;2.95;;;1.50;;
52898;SDS011;38763;53.096;6.062;2022-08-25T12:48:38;4.97;;;1.70;;
52898;SDS011;38763;53.096;6.062;2022-08-25T12:50:54;3.58;;;1.63;;
52898;SDS011;38763;53.096;6.062;2022-08-25T12:56:07;4.18;;;1.92;;
52898;SDS011;38763;53.096;6.062;2022-08-25T12:58:47;3.10;;;1.67;;
52898;SDS011;38763;53.096;6.062;2022-08-25T13:03:59;3.20;;;1.60;;
52898;SDS011;38763;53.096;6.062;2022-08-25T13:12:29;2.97;;;1.75;;
52898;SDS011;38763;53.096;6.062;2022-08-25T13:15:04;3.28;;;1.80;;
52898;SDS011;38763;53.096;6.062;2022-08-25T13:17:31;4.03;;;1.90;;
52898;SDS011;38763;53.096;6.062;2022-08-25T13:20:15;3.67;;;1.73;;
52898;SDS011;38763;53.096;6.062;2022-08-25T13:22:45;4.85;;;1.73;;
52898;SDS011;38763;53.096;6.062;2022-08-25T13:25:22;4.53;;;1.90;;
52898;SDS011;38763;53.096;6.062;2022-08-25T13:27:52;5.40;;;1.90;;
52898;SDS011;38763;53.096;6.062;2022-08-25T13:30:22;4.68;;;2.10;;
52898;SDS011;38763;53.096;6.062;2022-08-25T13:32:53;7.43;;;2.05;;
52898;SDS011;38763;53.096;6.062;2022-08-25T13:35:27;3.90;;;1.75;;
52898;SDS011;38763;53.096;6.062;2022-08-25T13:38:15;4.13;;;1.80;;
52898;SDS011;38763;53.096;6.062;2022-08-25T13:40:43;4.85;;;1.80;;
52898;SDS011;38763;53.096;6.062;2022-08-25T13:43:09;4.55;;;1.88;;
52898;SDS011;38763;53.096;6.062;2022-08-25T13:45:37;4.95;;;2.00;;
52898;SDS011;38763;53.096;6.062;2022-08-25T13:48:09;3.58;;;1.88;;
52898;SDS011;38763;53.096;6.062;2022-08-25T13:50:37;3.78;;;1.92;;
52898;SDS011;38763;53.096;6.062;2022-08-25T13:53:06;4.00;;;1.80;;
52898;SDS011;38763;53.096;6.062;2022-08-25T13:58:02;6.07;;;2.30;;
52898;SDS011;38763;53.096;6.062;2022-08-25T14:00:31;7.35;;;2.20;;
52898;SDS011;38763;53.096;6.062;2022-08-25T14:03:02;6.45;;;2.10;;
52898;SDS011;38763;53.096;6.062;2022-08-25T14:05:30;7.75;;;2.40;;
52898;SDS011;38763;53.096;6.062;2022-08-25T14:08:02;5.20;;;2.08;;
52898;SDS011;38763;53.096;6.062;2022-08-25T14:10:37;5.78;;;2.47;;
52898;SDS011;38763;53.096;6.062;2022-08-25T14:15:37;7.93;;;2.20;;
52898;SDS011;38763;53.096;6.062;2022-08-25T14:18:17;3.83;;;2.05;;
52898;SDS011;38763;53.096;6.062;2022-08-25T14:20:50;4.50;;;2.20;;
52898;SDS011;38763;53.096;6.062;2022-08-25T14:23:22;4.68;;;1.63;;
52898;SDS011;38763;53.096;6.062;2022-08-25T14:25:51;4.78;;;1.92;;
52898;SDS011;38763;53.096;6.062;2022-08-25T14:28:19;3.03;;;1.63;;
52898;SDS011;38763;53.096;6.062;2022-08-25T14:30:54;2.50;;;1.40;;
52898;SDS011;38763;53.096;6.062;2022-08-25T14:33:25;3.90;;;1.70;;
52898;SDS011;38763;53.096;6.062;2022-08-25T14:35:56;2.08;;;1.42;;
52898;SDS011;38763;53.096;6.062;2022-08-25T14:38:23;3.35;;;1.60;;
52898;SDS011;38763;53.096;6.062;2022-08-25T14:40:50;3.55;;;1.80;;
52898;SDS011;38763;53.096;6.062;2022-08-25T14:43:17;3.72;;;1.50;;
52898;SDS011;38763;53.096;6.062;2022-08-25T14:45:44;4.28;;;1.70;;
52898;SDS011;38763;53.096;6.062;2022-08-25T14:48:13;2.80;;;1.45;;
52898;SDS011;38763;53.096;6.062;2022-08-25T14:50:49;3.28;;;1.38;;
52898;SDS011;38763;53.096;6.062;2022-08-25T14:53:16;3.17;;;1.40;;
52898;SDS011;38763;53.096;6.062;2022-08-25T14:55:41;4.72;;;1.70;;
52898;SDS011;38763;53.096;6.062;2022-08-25T14:58:07;3.40;;;1.30;;
52898;SDS011;38763;53.096;6.062;2022-08-25T15:00:35;5.40;;;1.40;;
52898;SDS011;38763;53.096;6.062;2022-08-25T15:03:04;4.07;;;1.30;;
52898;SDS011;38763;53.096;6.062;2022-08-25T15:05:30;2.33;;;1.40;;
52898;SDS011;38763;53.096;6.062;2022-08-25T15:07:56;5.28;;;1.60;;
52898;SDS011;38763;53.096;6.062;2022-08-25T15:10:40;5.63;;;1.48;;
52898;SDS011;38763;53.096;6.062;2022-08-25T15:13:06;4.32;;;1.52;;
52898;SDS011;38763;53.096;6.062;2022-08-25T15:15:33;4.13;;;1.60;;
52898;SDS011;38763;53.096;6.062;2022-08-25T15:18:03;2.88;;;1.58;;
52898;SDS011;38763;53.096;6.062;2022-08-25T15:20:29;3.65;;;1.85;;
52898;SDS011;38763;53.096;6.062;2022-08-25T15:22:54;2.92;;;1.60;;
52898;SDS011;38763;53.096;6.062;2022-08-25T15:25:20;3.10;;;1.63;;
52898;SDS011;38763;53.096;6.062;2022-08-25T15:27:47;3.35;;;1.50;;
52898;SDS011;38763;53.096;6.062;2022-08-25T15:30:13;6.60;;;1.60;;
52898;SDS011;38763;53.096;6.062;2022-08-25T15:32:39;2.67;;;1.60;;
52898;SDS011;38763;53.096;6.062;2022-08-25T15:35:05;4.28;;;1.67;;
52898;SDS011;38763;53.096;6.062;2022-08-25T15:37:31;3.45;;;1.90;;
52898;SDS011;38763;53.096;6.062;2022-08-25T15:39:56;5.25;;;2.38;;
52898;SDS011;38763;53.096;6.062;2022-08-25T15:42:22;6.68;;;1.88;;
52898;SDS011;38763;53.096;6.062;2022-08-25T15:44:49;4.95;;;2.10;;
52898;SDS011;38763;53.096;6.062;2022-08-25T15:47:14;7.47;;;1.92;;
52898;SDS011;38763;53.096;6.062;2022-08-25T15:49:40;5.75;;;1.95;;
52898;SDS011;38763;53.096;6.062;2022-08-25T15:52:07;5.15;;;1.90;;
52898;SDS011;38763;53.096;6.062;2022-08-25T15:54:33;3.75;;;1.90;;
52898;SDS011;38763;53.096;6.062;2022-08-25T15:56:59;4.68;;;1.92;;
52898;SDS011;38763;53.096;6.062;2022-08-25T15:59:25;5.75;;;1.80;;
52898;SDS011;38763;53.096;6.062;2022-08-25T16:01:51;4.55;;;1.80;;
52898;SDS011;38763;53.096;6.062;2022-08-25T16:04:18;4.05;;;2.10;;
52898;SDS011;38763;53.096;6.062;2022-08-25T16:06:45;4.25;;;1.77;;
52898;SDS011;38763;53.096;6.062;2022-08-25T16:09:11;7.32;;;2.10;;
52898;SDS011;38763;53.096;6.062;2022-08-25T16:11:36;4.80;;;1.90;;
52898;SDS011;38763;53.096;6.062;2022-08-25T16:14:03;4.95;;;1.70;;
52898;SDS011;38763;53.096;6.062;2022-08-25T16:16:29;5.10;;;2.03;;
52898;SDS011;38763;53.096;6.062;2022-08-25T16:18:55;4.03;;;1.80;;
52898;SDS011;38763;53.096;6.062;2022-08-25T16:21:23;4.97;;;1.88;;
52898;SDS011;38763;53.096;6.062;2022-08-25T16:23:54;3.67;;;1.92;;
52898;SDS011;38763;53.096;6.062;2022-08-25T16:26:21;4.60;;;2.20;;
52898;SDS011;38763;53.096;6.062;2022-08-25T16:28:47;3.65;;;2.03;;
52898;SDS011;38763;53.096;6.062;2022-08-25T16:31:13;3.88;;;1.85;;
52898;SDS011;38763;53.096;6.062;2022-08-25T16:33:40;4.20;;;2.05;;
52898;SDS011;38763;53.096;6.062;2022-08-25T16:36:08;5.18;;;1.90;;
52898;SDS011;38763;53.096;6.062;2022-08-25T16:38:34;6.40;;;2.17;;
52898;SDS011;38763;53.096;6.062;2022-08-25T16:41:04;4.63;;;1.65;;
52898;SDS011;38763;53.096;6.062;2022-08-25T16:43:30;4.97;;;2.13;;
52898;SDS011;38763;53.096;6.062;2022-08-25T16:45:59;7.35;;;2.00;;
52898;SDS011;38763;53.096;6.062;2022-08-25T16:48:26;6.60;;;1.98;;